Latest Weather Observations for Gladstone Airport

IDQ60801

Issued at 10:35 pm EST Friday 25 July 2014 (issued every 30 minutes, with the page automatically refreshed every 10 minutes)

About weather observations | Map of weather stations | Latest weather observations for QLD | Other Formats
Station Details ID: 039326 Name: GLADSTONE AIRPORT Lat: -23.87 Lon: 151.22 Height: 16.6 m
Data from the previous 72 hours. | See also: Recent months at Gladstone Airport
Date/Time
EST
Temp
°C
App
Temp
°C
Dew
Point
Rel
Hum
%
Delta-T
°C
Wind Press
QNH
hPa
Press
MSL
hPa
Rain
since 9 am
mm
Dir
 
Spd
km/h
Gust
km/h
Spd
kts
Gust
kts
25/10:30pm 17.9 18.0 14.0 78 2.2 SSE 6 9 3 5 1026.2 - 0.0
25/10:00pm 17.7 17.2 13.8 78 2.2 SSE 9 15 5 8 1026.0 - 0.0
25/09:30pm 17.8 17.7 13.9 78 2.2 SSE 7 11 4 6 1026.1 - 0.0
25/09:00pm 17.9 17.4 13.8 77 2.3 SSE 9 13 5 7 1026.2 1026.1 0.0
25/08:30pm 17.9 17.8 13.8 77 2.3 SSE 7 11 4 6 1026.1 - 0.0
25/08:00pm 18.3 18.2 14.0 76 2.5 SSE 7 9 4 5 1026.0 - 0.0
25/07:30pm 19.2 18.9 14.5 74 2.7 SE 9 13 5 7 1025.4 - 0.0
25/07:00pm 19.3 19.3 14.3 73 2.9 SE 7 13 4 7 1025.1 - 0.0
25/06:30pm 19.5 18.4 14.3 72 3.0 ESE 13 20 7 11 1024.6 - 0.0
25/06:00pm 19.8 18.1 14.6 72 3.0 ESE 17 22 9 12 1024.2 1024.1 0.0
25/05:30pm 20.1 18.5 14.9 72 3.1 ESE 17 20 9 11 1023.9 - 0.0
25/05:00pm 21.0 19.4 14.9 68 3.6 E 17 22 9 12 1023.7 - 0.0
25/04:30pm 21.5 19.2 14.6 65 4.1 ESE 20 28 11 15 1023.4 - 0.0
25/04:00pm 22.2 20.1 15.1 64 4.2 ESE 20 32 11 17 1023.3 - 0.0
25/03:30pm 23.0 20.6 14.3 58 5.1 E 20 28 11 15 1023.1 - 0.0
25/03:00pm 23.3 20.5 14.3 57 5.3 ESE 22 30 12 16 1023.0 1022.9 0.0
25/02:30pm 23.4 20.4 13.8 54 5.6 E 22 30 12 16 1023.2 - 0.0
25/02:00pm 23.8 21.1 13.6 52 5.9 ENE 20 26 11 14 1023.3 - 0.0
25/01:30pm 22.9 20.2 13.4 55 5.5 E 20 28 11 15 1023.5 - 0.0
25/01:00pm 23.4 20.8 13.8 54 5.6 E 20 26 11 14 1023.9 - 0.0
25/12:30pm 23.4 20.9 14.1 56 5.5 E 20 28 11 15 1024.2 - 0.0
25/12:00pm 22.9 20.3 13.9 57 5.2 E 20 28 11 15 1024.8 1024.7 0.0
25/11:30am 22.9 20.3 13.7 56 5.4 E 20 26 11 14 1025.2 - 0.0
25/11:00am 22.2 19.3 14.1 60 4.7 E 22 28 12 15 1025.5 - 0.0
25/10:30am 21.7 18.7 13.6 60 4.7 E 22 28 12 15 1025.7 - 0.0
25/10:00am 21.5 19.8 14.6 65 4.1 ESE 17 26 9 14 1025.8 - 0.0
25/09:30am 20.5 19.5 14.6 69 3.4 SE 13 20 7 11 1026.0 - 0.0
25/09:00am 20.0 19.4 14.6 71 3.1 SE 11 19 6 10 1026.0 1025.9 0.0
25/08:30am 18.2 18.0 14.7 80 2.0 S 9 15 5 8 1025.7 - 0.0
25/08:00am 15.5 14.9 13.5 88 1.1 SSW 9 15 5 8 1025.4 - 0.0
25/07:30am 14.6 13.8 12.8 89 1.0 SSW 9 11 5 6 1025.1 - 0.0
25/07:00am 13.6 14.2 12.0 90 0.9 CALM 0 0 0 0 1024.8 - 0.0
25/06:30am 13.4 12.7 12.0 91 0.8 WNW 7 11 4 6 1024.5 - 0.0
25/06:00am 13.6 12.6 12.2 91 0.8 SSW 9 15 5 8 1023.9 1023.8 0.0
25/05:30am 13.6 12.8 11.8 89 1.0 SSW 7 11 4 6 1023.7 - 0.0
25/05:00am 13.8 13.0 11.8 88 1.1 SSW 7 11 4 6 1023.3 - 0.0
25/04:30am 13.8 13.0 11.8 88 1.1 SW 7 9 4 5 1023.2 - 0.0
25/04:00am 13.8 13.0 11.8 88 1.1 SSW 7 11 4 6 1023.1 - 0.0
25/03:30am 13.7 12.2 11.9 89 1.0 SSW 11 15 6 8 1023.0 - 0.0
25/03:00am 13.9 12.5 12.1 89 1.0 SW 11 15 6 8 1023.0 1022.9 0.0
25/02:30am 13.7 11.8 11.9 89 1.0 SSW 13 17 7 9 1023.2 - 0.0
25/02:00am 14.0 13.0 12.4 90 0.9 SSW 9 13 5 7 1023.3 - 0.0
25/01:30am 14.3 13.4 12.5 89 1.0 SSW 9 13 5 7 1023.3 - 0.0
25/01:00am 14.3 13.4 12.5 89 1.0 SSW 9 11 5 6 1023.3 - 0.0
25/12:30am 14.3 13.3 12.3 88 1.1 SSW 9 11 5 6 1023.2 - 0.0
25/12:00am 14.7 14.2 12.6 87 1.1 SSW 7 9 4 5 1023.2 1023.1 0.0
 
Date/Time
EST
Temp
°C
App
Temp
°C
Dew
Point
Rel
Hum
%
Delta-T
°C
Wind Press
QNH
hPa
Press
MSL
hPa
Rain
since 9 am
mm
Dir
 
Spd
km/h
Gust
km/h
Spd
kts
Gust
kts
24/11:30pm 15.4 15.2 12.9 85 1.4 SSW 6 7 3 4 1023.2 - 0.0
24/11:00pm 16.1 16.0 13.2 83 1.6 S 6 7 3 4 1023.2 - 0.0
24/10:30pm 16.5 16.3 13.6 83 1.6 SSE 7 11 4 6 1023.2 - 0.0
24/10:00pm 16.5 16.4 14.0 85 1.4 SSE 7 9 4 5 1023.3 - 0.0
24/09:30pm 16.5 16.6 14.0 85 1.4 SE 6 9 3 5 1023.4 - 0.0
24/09:00pm 16.8 17.0 14.3 85 1.4 S 6 7 3 4 1023.2 1023.1 0.0
24/08:30pm 17.3 17.6 14.4 83 1.7 S 6 7 3 4 1023.0 - 0.0
24/08:00pm 18.2 18.2 15.1 82 1.8 SE 9 11 5 6 1022.8 - 0.0
24/07:30pm 18.4 18.4 15.3 82 1.8 SE 9 13 5 7 1022.4 - 0.0
24/07:00pm 18.7 17.8 14.8 78 2.3 ESE 13 17 7 9 1022.1 - 0.0
24/06:30pm 18.9 17.9 14.6 76 2.5 ESE 13 15 7 8 1021.6 - 0.0
24/06:00pm 19.3 18.5 13.9 71 3.1 E 11 15 6 8 1021.2 1021.2 0.0
24/05:30pm 19.7 18.2 14.3 71 3.1 E 15 19 8 10 1020.8 - 0.0
24/05:00pm 20.8 18.4 12.8 60 4.5 ENE 17 20 9 11 1020.4 - 0.0
24/04:30pm 21.4 18.9 12.3 56 5.1 ENE 17 20 9 11 1020.1 - 0.0
24/04:00pm 21.6 18.7 12.2 55 5.3 ENE 19 24 10 13 1019.8 - 0.0
24/03:30pm 22.3 18.9 11.1 49 6.2 ENE 20 24 11 13 1019.7 - 0.0
24/03:00pm 22.6 19.6 12.0 51 6.0 ENE 19 22 10 12 1019.7 1019.7 0.0
24/02:30pm 22.9 20.3 11.9 50 6.2 E 17 22 9 12 1019.7 - 0.0
24/02:00pm 22.9 20.4 12.2 51 6.1 E 17 22 9 12 1019.7 - 0.0
24/01:30pm 22.6 20.0 12.0 51 6.0 ENE 17 24 9 13 1020.0 - 0.0
24/01:00pm 22.8 20.6 12.1 51 6.1 ENE 15 24 8 13 1020.1 - 0.0
24/12:30pm 22.3 19.3 12.0 52 5.8 ENE 19 26 10 14 1020.5 - 0.0
24/12:00pm 22.1 19.0 11.5 51 5.9 ESE 19 28 10 15 1021.1 1021.1 0.0
24/11:30am 21.8 19.1 12.9 57 5.1 ESE 19 26 10 14 1021.6 - 0.0
24/11:00am 21.4 17.9 13.3 60 4.6 E 24 33 13 18 1021.8 - 0.0
24/10:30am 21.1 18.5 13.3 61 4.5 SE 19 30 10 16 1021.8 - 0.0
24/10:00am 21.0 17.7 12.7 59 4.7 ESE 22 33 12 18 1021.7 - 0.0
24/09:30am 19.7 17.5 12.0 61 4.3 SE 15 24 8 13 1021.7 - 0.0
24/09:00am 19.2 17.3 11.7 62 4.1 SE 13 24 7 13 1021.7 1021.7 0.0
24/08:30am 16.7 16.6 12.0 74 2.6 SSW 4 9 2 5 1021.7 - 0.0
24/08:00am 14.3 12.9 10.9 80 1.8 SW 9 13 5 7 1021.7 - 0.0
24/07:30am 12.8 11.2 10.3 85 1.3 SSW 9 11 5 6 1021.3 - 0.0
24/07:00am 11.6 10.3 9.9 89 0.9 SSW 7 13 4 7 1021.2 - 0.0
24/06:30am 11.4 9.3 9.7 89 0.9 SSW 11 17 6 9 1020.9 - 0.0
24/06:00am 11.5 9.4 9.8 89 0.9 SSW 11 13 6 7 1020.7 1020.7 0.0
24/05:30am 11.5 9.4 9.8 89 0.9 SSW 11 15 6 8 1020.5 - 0.0
24/05:00am 11.7 9.6 9.9 89 0.9 SSW 11 17 6 9 1020.2 - 0.0
24/04:30am 12.0 10.0 10.2 89 0.9 SSW 11 15 6 8 1020.1 - 0.0
24/04:00am 12.3 10.4 10.4 88 1.0 SSW 11 15 6 8 1020.2 - 0.0
24/03:30am 12.8 11.0 11.0 89 0.9 SSW 11 13 6 7 1020.3 - 0.0
24/03:00am 13.1 11.8 11.2 88 1.0 SSW 9 11 5 6 1020.3 1020.3 0.0
24/02:30am 13.3 12.4 11.4 88 1.0 SSW 7 9 4 5 1020.4 - 0.0
24/02:00am 13.4 12.2 11.5 88 1.0 SSW 9 11 5 6 1020.6 - 0.0
24/01:30am 13.4 12.5 11.3 87 1.1 SSW 7 9 4 5 1020.7 - 0.0
24/01:00am 13.6 12.6 11.1 85 1.3 SSW 7 9 4 5 1020.7 - 0.0
24/12:30am 14.1 13.2 11.3 83 1.5 SSW 7 9 4 5 1020.8 - 0.0
24/12:00am 14.5 13.5 11.1 80 1.8 SSW 7 11 4 6 1020.8 1020.8 0.0
 
Date/Time
EST
Temp
°C
App
Temp
°C
Dew
Point
Rel
Hum
%
Delta-T
°C
Wind Press
QNH
hPa
Press
MSL
hPa
Rain
since 9 am
mm
Dir
 
Spd
km/h
Gust
km/h
Spd
kts
Gust
kts
23/11:30pm 15.6 14.5 11.8 78 2.1 S 9 13 5 7 1020.8 - 0.0
23/11:00pm 15.9 14.8 11.9 77 2.2 S 9 11 5 6 1020.9 - 0.0
23/10:30pm 15.6 14.9 11.4 76 2.3 S 6 9 3 5 1020.9 - 0.0
23/10:00pm 15.8 14.9 11.2 74 2.5 S 7 11 4 6 1020.8 - 0.0
23/09:30pm 16.3 15.3 11.0 71 2.8 SSE 7 13 4 7 1020.8 - 0.0
23/09:00pm 17.1 15.5 11.6 70 3.0 SE 11 17 6 9 1020.6 1020.6 0.0
23/08:30pm 17.3 16.4 12.6 74 2.6 SE 9 15 5 8 1020.4 - 0.0
23/08:00pm 17.8 16.7 13.1 74 2.6 ESE 11 17 6 9 1020.1 - 0.0
23/07:30pm 18.1 16.6 13.0 72 2.9 ESE 13 19 7 10 1020.2 - 0.0
23/07:00pm 18.2 17.0 12.9 71 3.0 ESE 11 13 6 7 1020.0 - 0.0
23/06:30pm 18.5 17.4 13.1 71 3.0 ESE 11 13 6 7 1019.9 - 0.0
23/06:00pm 18.9 16.1 12.6 67 3.5 E 19 24 10 13 1019.4 1019.4 0.0
23/05:30pm 19.3 17.2 11.3 60 4.4 E 13 20 7 11 1019.0 - 0.0
23/05:00pm 20.1 16.2 10.8 55 5.1 E 22 30 12 16 1018.8 - 0.0
23/04:30pm 20.8 16.4 10.3 51 5.7 ESE 24 32 13 17 1018.6 - 0.0
23/04:00pm 21.4 17.6 9.9 48 6.2 E 20 30 11 16 1018.3 - 0.0
23/03:30pm 21.4 17.8 10.6 50 5.9 ENE 20 30 11 16 1018.4 - 0.0
23/03:00pm 22.3 18.8 10.8 48 6.3 ENE 20 26 11 14 1018.4 1018.4 0.0
23/02:30pm 21.9 17.8 10.1 47 6.4 ENE 22 30 12 16 1018.5 - 0.0
23/02:00pm 22.4 18.8 10.5 47 6.5 NE 20 26 11 14 1018.5 - 0.0
23/01:30pm 22.7 19.0 9.5 43 7.1 E 19 24 10 13 1018.6 - 0.0
23/01:00pm 23.1 19.6 8.8 40 7.6 E 17 26 9 14 1018.9 - 0.0
23/12:30pm 22.6 18.8 9.0 42 7.3 ESE 19 24 10 13 1019.3 - 0.0
23/12:00pm 22.2 18.6 8.3 41 7.3 E 17 26 9 14 1020.1 1020.1 0.0
23/11:30am 22.1 19.5 9.3 44 6.9 ESE 13 20 7 11 1021.3 - 0.0
23/11:00am 21.5 18.7 10.0 48 6.2 ESE 15 28 8 15 1021.2 - 0.0
23/10:30am 21.1 17.8 9.7 48 6.1 SE 17 24 9 13 1021.0 - 0.0
23/10:00am 20.3 16.5 9.8 51 5.6 ESE 20 30 11 16 1021.6 - 0.0
23/09:30am 20.0 17.4 10.7 55 5.1 SSE 15 20 8 11 1021.9 - 0.0
23/09:00am 18.6 17.5 11.9 65 3.7 S 9 13 5 7 1022.0 1022.0 0.0
23/08:30am 15.7 14.1 11.5 76 2.3 SSW 11 13 6 7 1021.9 - 0.0
23/08:00am 14.3 12.6 11.1 81 1.7 SSW 11 17 6 9 1021.5 - 0.0
23/07:30am 12.9 11.4 10.6 86 1.2 SSW 9 13 5 7 1021.0 - 0.0
23/07:00am 11.6 9.6 10.0 90 0.8 SSW 11 15 6 8 1020.6 - 0.0
23/06:30am 11.3 9.2 9.7 90 0.8 SSW 11 13 6 7 1020.2 - 0.0
23/06:00am 11.6 9.5 9.9 89 0.9 SSW 11 15 6 8 1019.9 1019.9 0.0
23/05:30am 12.1 10.1 10.3 89 0.9 SSW 11 13 6 7 1019.5 - 0.0
23/05:00am 12.0 10.0 10.2 89 0.9 SSW 11 15 6 8 1019.3 - 0.0
23/04:30am 12.0 10.1 10.4 90 0.8 SSW 11 17 6 9 1019.1 - 0.0
23/04:00am 12.2 10.3 10.4 89 0.9 SSW 11 17 6 9 1019.0 - 0.0
23/03:30am 12.4 10.5 10.6 89 0.9 SSW 11 15 6 8 1018.7 - 0.0
23/03:00am 12.8 11.0 10.9 88 1.0 SSW 11 15 6 8 1019.0 1019.0 0.0
23/02:30am 13.1 11.3 11.0 87 1.1 SSW 11 13 6 7 1019.1 - 0.0
23/02:00am 13.3 12.0 11.4 88 1.0 SSW 9 13 5 7 1019.3 - 0.0
23/01:30am 13.6 12.4 11.5 87 1.1 SSW 9 13 5 7 1019.4 - 0.0
23/01:00am 13.9 12.3 11.6 86 1.2 SSW 11 13 6 7 1019.7 - 0.0
23/12:30am 14.3 13.1 11.6 84 1.4 SSW 9 11 5 6 1019.8 - 0.0
23/12:00am 14.4 13.2 11.7 84 1.4 SSW 9 11 5 6 1019.8 1019.8 0.0
 
Date/Time
EST
Temp
°C
App
Temp
°C
Dew
Point
Rel
Hum
%
Delta-T
°C
Wind Press
QNH
hPa
Press
MSL
hPa
Rain
since 9 am
mm
Dir
 
Spd
km/h
Gust
km/h
Spd
kts
Gust
kts
22/11:30pm 14.8 13.3 11.8 82 1.6 SSW 11 13 6 7 1019.9 - 0.0
22/11:00pm 14.9 13.8 11.9 82 1.6 SSW 9 11 5 6 1020.1 - 0.0

Other Formats:

Comma delimited format used in spreadsheet applications
http://www.bom.gov.au/fwo/IDQ60801/IDQ60801.94381.axf

JavaScript Object Notation format (JSON) in row-major order
http://www.bom.gov.au/fwo/IDQ60801/IDQ60801.94381.json